sensor_id;sensor_type;location;lat;lon;timestamp;P1;durP1;ratioP1;P2;durP2;ratioP2
67571;SDS011;54397;47.506;19.158;2022-12-18T00:00:57;186.87;;;72.40;;
67571;SDS011;54397;47.506;19.158;2022-12-18T00:04:23;48.77;;;24.33;;
67571;SDS011;54397;47.506;19.158;2022-12-18T00:07:46;42.40;;;18.67;;
67571;SDS011;54397;47.506;19.158;2022-12-18T00:11:09;39.00;;;20.00;;
67571;SDS011;54397;47.506;19.158;2022-12-18T00:14:34;41.10;;;20.20;;
67571;SDS011;54397;47.506;19.158;2022-12-18T00:18:02;44.77;;;19.67;;
67571;SDS011;54397;47.506;19.158;2022-12-18T00:21:23;39.17;;;19.30;;
67571;SDS011;54397;47.506;19.158;2022-12-18T00:24:48;37.97;;;18.50;;
67571;SDS011;54397;47.506;19.158;2022-12-18T00:28:10;38.13;;;18.03;;
67571;SDS011;54397;47.506;19.158;2022-12-18T00:31:32;40.57;;;18.67;;
67571;SDS011;54397;47.506;19.158;2022-12-18T00:34:54;39.20;;;19.27;;
67571;SDS011;54397;47.506;19.158;2022-12-18T00:38:16;39.67;;;18.43;;
67571;SDS011;54397;47.506;19.158;2022-12-18T00:41:40;39.40;;;19.17;;
67571;SDS011;54397;47.506;19.158;2022-12-18T00:45:20;34.83;;;18.03;;
67571;SDS011;54397;47.506;19.158;2022-12-18T00:48:41;38.77;;;18.90;;
67571;SDS011;54397;47.506;19.158;2022-12-18T00:52:06;37.47;;;18.23;;
67571;SDS011;54397;47.506;19.158;2022-12-18T00:55:27;37.30;;;18.37;;
67571;SDS011;54397;47.506;19.158;2022-12-18T00:58:49;40.43;;;19.17;;
67571;SDS011;54397;47.506;19.158;2022-12-18T01:02:11;36.23;;;18.13;;
67571;SDS011;54397;47.506;19.158;2022-12-18T01:05:38;39.87;;;18.23;;
67571;SDS011;54397;47.506;19.158;2022-12-18T01:09:03;39.53;;;18.23;;
67571;SDS011;54397;47.506;19.158;2022-12-18T01:12:25;40.80;;;18.73;;
67571;SDS011;54397;47.506;19.158;2022-12-18T01:15:48;31.97;;;17.03;;
67571;SDS011;54397;47.506;19.158;2022-12-18T01:19:12;39.60;;;18.57;;
67571;SDS011;54397;47.506;19.158;2022-12-18T01:22:38;41.47;;;18.23;;
67571;SDS011;54397;47.506;19.158;2022-12-18T01:26:07;36.63;;;18.63;;
67571;SDS011;54397;47.506;19.158;2022-12-18T01:29:34;36.77;;;16.60;;
67571;SDS011;54397;47.506;19.158;2022-12-18T01:32:56;185.33;;;73.40;;
67571;SDS011;54397;47.506;19.158;2022-12-18T01:36:21;45.47;;;21.53;;
67571;SDS011;54397;47.506;19.158;2022-12-18T01:39:45;38.97;;;18.80;;
67571;SDS011;54397;47.506;19.158;2022-12-18T01:43:08;35.67;;;17.30;;
67571;SDS011;54397;47.506;19.158;2022-12-18T01:46:30;40.13;;;18.20;;
67571;SDS011;54397;47.506;19.158;2022-12-18T01:49:53;36.77;;;17.90;;
67571;SDS011;54397;47.506;19.158;2022-12-18T01:53:17;78.27;;;34.80;;
67571;SDS011;54397;47.506;19.158;2022-12-18T01:56:42;35.33;;;17.50;;
67571;SDS011;54397;47.506;19.158;2022-12-18T02:00:07;37.00;;;17.80;;
67571;SDS011;54397;47.506;19.158;2022-12-18T02:03:32;38.13;;;18.08;;
67571;SDS011;54397;47.506;19.158;2022-12-18T02:07:03;37.20;;;17.53;;
67571;SDS011;54397;47.506;19.158;2022-12-18T02:10:39;34.03;;;17.30;;
67571;SDS011;54397;47.506;19.158;2022-12-18T02:21:09;37.50;;;18.45;;
67571;SDS011;54397;47.506;19.158;2022-12-18T02:28:13;31.17;;;15.90;;
67571;SDS011;54397;47.506;19.158;2022-12-18T02:31:39;34.87;;;17.03;;
67571;SDS011;54397;47.506;19.158;2022-12-18T02:35:16;35.57;;;16.53;;
67571;SDS011;54397;47.506;19.158;2022-12-18T02:38:44;58.17;;;24.50;;
67571;SDS011;54397;47.506;19.158;2022-12-18T02:42:07;74.10;;;32.50;;
67571;SDS011;54397;47.506;19.158;2022-12-18T02:45:32;38.37;;;17.70;;
67571;SDS011;54397;47.506;19.158;2022-12-18T02:48:55;34.10;;;17.73;;
67571;SDS011;54397;47.506;19.158;2022-12-18T02:59:50;38.87;;;18.80;;
67571;SDS011;54397;47.506;19.158;2022-12-18T03:03:24;38.30;;;18.13;;
67571;SDS011;54397;47.506;19.158;2022-12-18T03:07:01;35.93;;;17.80;;
67571;SDS011;54397;47.506;19.158;2022-12-18T03:10:27;40.90;;;19.83;;
67571;SDS011;54397;47.506;19.158;2022-12-18T03:13:52;36.70;;;19.00;;
67571;SDS011;54397;47.506;19.158;2022-12-18T03:17:18;42.03;;;18.70;;
67571;SDS011;54397;47.506;19.158;2022-12-18T03:20:42;39.60;;;18.47;;
67571;SDS011;54397;47.506;19.158;2022-12-18T03:24:06;41.77;;;18.23;;
67571;SDS011;54397;47.506;19.158;2022-12-18T03:27:29;41.67;;;18.63;;
67571;SDS011;54397;47.506;19.158;2022-12-18T03:30:55;40.20;;;19.73;;
67571;SDS011;54397;47.506;19.158;2022-12-18T03:34:26;40.77;;;17.80;;
67571;SDS011;54397;47.506;19.158;2022-12-18T03:37:52;34.07;;;18.43;;
67571;SDS011;54397;47.506;19.158;2022-12-18T03:44:46;50.43;;;21.13;;
67571;SDS011;54397;47.506;19.158;2022-12-18T03:48:28;67.03;;;30.53;;
67571;SDS011;54397;47.506;19.158;2022-12-18T03:52:09;38.07;;;18.17;;
67571;SDS011;54397;47.506;19.158;2022-12-18T03:55:38;40.03;;;17.90;;
67571;SDS011;54397;47.506;19.158;2022-12-18T03:59:00;37.30;;;17.77;;
67571;SDS011;54397;47.506;19.158;2022-12-18T04:02:23;38.63;;;18.73;;
67571;SDS011;54397;47.506;19.158;2022-12-18T04:05:47;37.27;;;19.03;;
67571;SDS011;54397;47.506;19.158;2022-12-18T04:09:11;42.13;;;19.90;;
67571;SDS011;54397;47.506;19.158;2022-12-18T04:12:33;39.33;;;18.37;;
67571;SDS011;54397;47.506;19.158;2022-12-18T04:15:55;37.47;;;19.23;;
67571;SDS011;54397;47.506;19.158;2022-12-18T04:19:16;41.07;;;18.03;;
67571;SDS011;54397;47.506;19.158;2022-12-18T04:22:41;37.97;;;18.13;;
67571;SDS011;54397;47.506;19.158;2022-12-18T04:26:07;39.80;;;17.50;;
67571;SDS011;54397;47.506;19.158;2022-12-18T04:29:29;37.20;;;18.23;;
67571;SDS011;54397;47.506;19.158;2022-12-18T04:32:50;41.40;;;18.87;;
67571;SDS011;54397;47.506;19.158;2022-12-18T04:36:15;44.17;;;18.33;;
67571;SDS011;54397;47.506;19.158;2022-12-18T04:39:36;38.30;;;18.23;;
67571;SDS011;54397;47.506;19.158;2022-12-18T04:43:01;113.03;;;41.17;;
67571;SDS011;54397;47.506;19.158;2022-12-18T04:46:22;35.53;;;17.57;;
67571;SDS011;54397;47.506;19.158;2022-12-18T04:49:44;37.97;;;18.30;;
67571;SDS011;54397;47.506;19.158;2022-12-18T04:53:05;41.00;;;19.20;;
67571;SDS011;54397;47.506;19.158;2022-12-18T04:56:31;35.73;;;17.37;;
67571;SDS011;54397;47.506;19.158;2022-12-18T04:59:53;38.60;;;17.87;;
67571;SDS011;54397;47.506;19.158;2022-12-18T05:03:17;41.47;;;18.30;;
67571;SDS011;54397;47.506;19.158;2022-12-18T05:06:38;35.93;;;17.77;;
67571;SDS011;54397;47.506;19.158;2022-12-18T05:10:02;40.27;;;17.20;;
67571;SDS011;54397;47.506;19.158;2022-12-18T05:13:28;79.73;;;33.83;;
67571;SDS011;54397;47.506;19.158;2022-12-18T05:16:52;54.37;;;25.93;;
67571;SDS011;54397;47.506;19.158;2022-12-18T05:20:21;38.63;;;17.93;;
67571;SDS011;54397;47.506;19.158;2022-12-18T05:23:43;35.83;;;16.93;;
67571;SDS011;54397;47.506;19.158;2022-12-18T05:27:04;39.23;;;17.60;;
67571;SDS011;54397;47.506;19.158;2022-12-18T05:30:26;37.87;;;17.70;;
67571;SDS011;54397;47.506;19.158;2022-12-18T05:33:48;38.97;;;17.57;;
67571;SDS011;54397;47.506;19.158;2022-12-18T05:37:10;33.03;;;16.70;;
67571;SDS011;54397;47.506;19.158;2022-12-18T05:40:31;37.90;;;17.37;;
67571;SDS011;54397;47.506;19.158;2022-12-18T05:43:53;41.17;;;19.40;;
67571;SDS011;54397;47.506;19.158;2022-12-18T05:47:15;39.43;;;18.33;;
67571;SDS011;54397;47.506;19.158;2022-12-18T05:50:36;39.27;;;17.93;;
67571;SDS011;54397;47.506;19.158;2022-12-18T05:53:59;41.63;;;18.50;;
67571;SDS011;54397;47.506;19.158;2022-12-18T05:57:23;37.80;;;18.67;;
67571;SDS011;54397;47.506;19.158;2022-12-18T06:00:45;40.00;;;18.27;;
67571;SDS011;54397;47.506;19.158;2022-12-18T06:04:07;43.70;;;18.77;;
67571;SDS011;54397;47.506;19.158;2022-12-18T06:07:29;35.47;;;18.13;;
67571;SDS011;54397;47.506;19.158;2022-12-18T06:10:51;40.23;;;19.40;;
67571;SDS011;54397;47.506;19.158;2022-12-18T06:14:16;40.63;;;19.80;;
67571;SDS011;54397;47.506;19.158;2022-12-18T06:17:38;44.83;;;20.60;;
67571;SDS011;54397;47.506;19.158;2022-12-18T06:21:02;39.90;;;18.93;;
67571;SDS011;54397;47.506;19.158;2022-12-18T06:24:24;39.80;;;19.47;;
67571;SDS011;54397;47.506;19.158;2022-12-18T06:27:46;39.43;;;20.70;;
67571;SDS011;54397;47.506;19.158;2022-12-18T06:31:09;42.83;;;20.43;;
67571;SDS011;54397;47.506;19.158;2022-12-18T06:34:31;40.10;;;20.27;;
67571;SDS011;54397;47.506;19.158;2022-12-18T06:37:53;223.13;;;88.07;;
67571;SDS011;54397;47.506;19.158;2022-12-18T06:41:16;47.77;;;22.80;;
67571;SDS011;54397;47.506;19.158;2022-12-18T06:44:41;40.60;;;19.93;;
67571;SDS011;54397;47.506;19.158;2022-12-18T06:48:03;49.20;;;21.80;;
67571;SDS011;54397;47.506;19.158;2022-12-18T06:51:27;43.73;;;19.27;;
67571;SDS011;54397;47.506;19.158;2022-12-18T06:54:49;39.17;;;18.97;;
67571;SDS011;54397;47.506;19.158;2022-12-18T06:58:13;39.33;;;20.10;;
67571;SDS011;54397;47.506;19.158;2022-12-18T07:01:35;38.67;;;19.47;;
67571;SDS011;54397;47.506;19.158;2022-12-18T07:04:57;41.40;;;19.80;;
67571;SDS011;54397;47.506;19.158;2022-12-18T07:08:18;45.03;;;20.50;;
67571;SDS011;54397;47.506;19.158;2022-12-18T07:11:42;44.20;;;20.00;;
67571;SDS011;54397;47.506;19.158;2022-12-18T07:15:04;40.00;;;20.03;;
67571;SDS011;54397;47.506;19.158;2022-12-18T07:18:26;42.80;;;21.03;;
67571;SDS011;54397;47.506;19.158;2022-12-18T07:21:50;44.50;;;20.70;;
67571;SDS011;54397;47.506;19.158;2022-12-18T07:25:12;48.07;;;21.33;;
67571;SDS011;54397;47.506;19.158;2022-12-18T07:28:34;44.73;;;22.10;;
67571;SDS011;54397;47.506;19.158;2022-12-18T07:31:56;46.50;;;23.00;;
67571;SDS011;54397;47.506;19.158;2022-12-18T07:35:18;45.83;;;21.90;;
67571;SDS011;54397;47.506;19.158;2022-12-18T07:38:48;47.60;;;22.70;;
67571;SDS011;54397;47.506;19.158;2022-12-18T07:42:10;58.50;;;27.03;;
67571;SDS011;54397;47.506;19.158;2022-12-18T07:45:51;53.03;;;24.53;;
67571;SDS011;54397;47.506;19.158;2022-12-18T07:49:13;48.03;;;23.13;;
67571;SDS011;54397;47.506;19.158;2022-12-18T07:52:34;50.67;;;21.80;;
67571;SDS011;54397;47.506;19.158;2022-12-18T07:55:56;44.17;;;21.30;;
67571;SDS011;54397;47.506;19.158;2022-12-18T07:59:38;44.17;;;22.13;;
67571;SDS011;54397;47.506;19.158;2022-12-18T08:03:00;46.40;;;22.10;;
67571;SDS011;54397;47.506;19.158;2022-12-18T08:06:23;48.50;;;21.57;;
67571;SDS011;54397;47.506;19.158;2022-12-18T08:09:45;43.53;;;22.43;;
67571;SDS011;54397;47.506;19.158;2022-12-18T08:13:08;42.23;;;21.73;;
67571;SDS011;54397;47.506;19.158;2022-12-18T08:16:32;43.30;;;21.77;;
67571;SDS011;54397;47.506;19.158;2022-12-18T08:19:57;43.83;;;21.83;;
67571;SDS011;54397;47.506;19.158;2022-12-18T08:23:19;45.83;;;22.40;;
67571;SDS011;54397;47.506;19.158;2022-12-18T08:26:40;42.37;;;21.77;;
67571;SDS011;54397;47.506;19.158;2022-12-18T08:30:12;43.60;;;22.50;;
67571;SDS011;54397;47.506;19.158;2022-12-18T08:33:37;43.33;;;21.33;;
67571;SDS011;54397;47.506;19.158;2022-12-18T08:37:01;45.33;;;22.47;;
67571;SDS011;54397;47.506;19.158;2022-12-18T08:40:25;41.20;;;21.27;;
67571;SDS011;54397;47.506;19.158;2022-12-18T08:43:47;58.83;;;32.83;;
67571;SDS011;54397;47.506;19.158;2022-12-18T08:47:27;44.70;;;21.73;;
67571;SDS011;54397;47.506;19.158;2022-12-18T08:50:58;37.57;;;20.73;;
67571;SDS011;54397;47.506;19.158;2022-12-18T08:54:20;35.15;;;20.30;;
67571;SDS011;54397;47.506;19.158;2022-12-18T08:57:44;42.87;;;22.60;;
67571;SDS011;54397;47.506;19.158;2022-12-18T09:01:12;39.97;;;21.50;;
67571;SDS011;54397;47.506;19.158;2022-12-18T09:04:37;36.17;;;20.67;;
67571;SDS011;54397;47.506;19.158;2022-12-18T09:07:59;43.58;;;22.10;;
67571;SDS011;54397;47.506;19.158;2022-12-18T09:11:21;37.73;;;21.10;;
67571;SDS011;54397;47.506;19.158;2022-12-18T09:14:45;40.40;;;21.97;;
67571;SDS011;54397;47.506;19.158;2022-12-18T09:18:07;36.77;;;21.87;;
67571;SDS011;54397;47.506;19.158;2022-12-18T09:21:31;37.50;;;22.37;;
67571;SDS011;54397;47.506;19.158;2022-12-18T09:25:00;37.97;;;21.77;;
67571;SDS011;54397;47.506;19.158;2022-12-18T09:28:21;42.00;;;22.37;;
67571;SDS011;54397;47.506;19.158;2022-12-18T09:31:43;43.03;;;23.43;;
67571;SDS011;54397;47.506;19.158;2022-12-18T09:35:04;41.13;;;21.77;;
67571;SDS011;54397;47.506;19.158;2022-12-18T09:38:26;40.07;;;22.97;;
67571;SDS011;54397;47.506;19.158;2022-12-18T09:41:51;39.07;;;22.40;;
67571;SDS011;54397;47.506;19.158;2022-12-18T09:45:14;39.53;;;21.70;;
67571;SDS011;54397;47.506;19.158;2022-12-18T09:48:40;39.23;;;21.17;;
67571;SDS011;54397;47.506;19.158;2022-12-18T09:52:10;39.30;;;21.50;;
67571;SDS011;54397;47.506;19.158;2022-12-18T09:55:51;34.07;;;19.70;;
67571;SDS011;54397;47.506;19.158;2022-12-18T09:59:23;39.47;;;21.80;;
67571;SDS011;54397;47.506;19.158;2022-12-18T10:02:50;33.50;;;19.93;;
67571;SDS011;54397;47.506;19.158;2022-12-18T10:17:43;36.85;;;21.10;;
67571;SDS011;54397;47.506;19.158;2022-12-18T10:21:18;32.07;;;20.00;;
67571;SDS011;54397;47.506;19.158;2022-12-18T10:24:49;37.63;;;20.60;;
67571;SDS011;54397;47.506;19.158;2022-12-18T10:28:15;32.40;;;20.00;;
67571;SDS011;54397;47.506;19.158;2022-12-18T10:31:40;37.42;;;19.73;;
67571;SDS011;54397;47.506;19.158;2022-12-18T10:35:02;31.08;;;19.17;;
67571;SDS011;54397;47.506;19.158;2022-12-18T10:38:27;30.30;;;19.05;;
67571;SDS011;54397;47.506;19.158;2022-12-18T10:41:50;34.17;;;19.48;;
67571;SDS011;54397;47.506;19.158;2022-12-18T10:45:14;32.63;;;19.85;;
67571;SDS011;54397;47.506;19.158;2022-12-18T10:55:37;29.02;;;18.98;;
67571;SDS011;54397;47.506;19.158;2022-12-18T10:59:02;28.55;;;18.48;;
67571;SDS011;54397;47.506;19.158;2022-12-18T11:02:37;31.95;;;20.67;;
67571;SDS011;54397;47.506;19.158;2022-12-18T11:06:04;34.83;;;20.25;;
67571;SDS011;54397;47.506;19.158;2022-12-18T11:09:30;34.40;;;21.38;;
67571;SDS011;54397;47.506;19.158;2022-12-18T11:12:55;28.63;;;18.23;;
67571;SDS011;54397;47.506;19.158;2022-12-18T11:16:20;29.77;;;18.92;;
67571;SDS011;54397;47.506;19.158;2022-12-18T11:19:41;34.00;;;20.13;;
67571;SDS011;54397;47.506;19.158;2022-12-18T11:23:10;36.63;;;24.83;;
67571;SDS011;54397;47.506;19.158;2022-12-18T11:26:35;32.03;;;20.27;;
67571;SDS011;54397;47.506;19.158;2022-12-18T11:30:13;29.38;;;19.17;;
67571;SDS011;54397;47.506;19.158;2022-12-18T11:33:44;27.30;;;17.70;;
67571;SDS011;54397;47.506;19.158;2022-12-18T11:37:31;30.77;;;18.40;;
67571;SDS011;54397;47.506;19.158;2022-12-18T11:41:05;29.92;;;18.15;;
67571;SDS011;54397;47.506;19.158;2022-12-18T11:44:51;32.67;;;19.40;;
67571;SDS011;54397;47.506;19.158;2022-12-18T11:48:16;32.20;;;20.00;;
67571;SDS011;54397;47.506;19.158;2022-12-18T11:52:34;25.75;;;18.50;;
67571;SDS011;54397;47.506;19.158;2022-12-18T11:55:45;26.88;;;18.90;;
67571;SDS011;54397;47.506;19.158;2022-12-18T11:59:13;29.92;;;19.50;;
67571;SDS011;54397;47.506;19.158;2022-12-18T12:11:20;26.63;;;18.02;;
67571;SDS011;54397;47.506;19.158;2022-12-18T12:21:46;26.55;;;18.48;;
67571;SDS011;54397;47.506;19.158;2022-12-18T12:29:16;31.80;;;20.55;;
67571;SDS011;54397;47.506;19.158;2022-12-18T12:39:59;32.80;;;19.42;;
67571;SDS011;54397;47.506;19.158;2022-12-18T12:43:41;29.20;;;18.70;;
67571;SDS011;54397;47.506;19.158;2022-12-18T12:47:14;25.45;;;18.60;;
67571;SDS011;54397;47.506;19.158;2022-12-18T12:50:39;31.40;;;19.52;;
67571;SDS011;54397;47.506;19.158;2022-12-18T12:54:04;27.98;;;18.40;;
67571;SDS011;54397;47.506;19.158;2022-12-18T12:57:37;32.70;;;19.92;;
67571;SDS011;54397;47.506;19.158;2022-12-18T13:01:09;23.98;;;16.63;;
67571;SDS011;54397;47.506;19.158;2022-12-18T13:04:56;24.33;;;16.10;;
67571;SDS011;54397;47.506;19.158;2022-12-18T13:08:26;25.85;;;16.63;;
67571;SDS011;54397;47.506;19.158;2022-12-18T13:11:53;24.65;;;15.35;;
67571;SDS011;54397;47.506;19.158;2022-12-18T13:15:45;19.98;;;13.80;;
67571;SDS011;54397;47.506;19.158;2022-12-18T13:19:25;21.48;;;14.13;;
67571;SDS011;54397;47.506;19.158;2022-12-18T13:22:50;25.85;;;16.35;;
67571;SDS011;54397;47.506;19.158;2022-12-18T13:29:49;31.15;;;17.65;;
67571;SDS011;54397;47.506;19.158;2022-12-18T13:36:36;77.80;;;45.50;;
67571;SDS011;54397;47.506;19.158;2022-12-18T13:39:58;30.63;;;17.70;;
67571;SDS011;54397;47.506;19.158;2022-12-18T13:46:48;30.42;;;18.00;;
67571;SDS011;54397;47.506;19.158;2022-12-18T13:50:32;37.15;;;19.40;;
67571;SDS011;54397;47.506;19.158;2022-12-18T13:53:58;28.90;;;17.53;;
67571;SDS011;54397;47.506;19.158;2022-12-18T13:57:25;35.00;;;20.07;;
67571;SDS011;54397;47.506;19.158;2022-12-18T14:00:51;40.30;;;20.13;;
67571;SDS011;54397;47.506;19.158;2022-12-18T14:04:24;34.23;;;19.40;;
67571;SDS011;54397;47.506;19.158;2022-12-18T14:07:52;39.70;;;20.33;;
67571;SDS011;54397;47.506;19.158;2022-12-18T14:11:20;37.17;;;21.33;;
67571;SDS011;54397;47.506;19.158;2022-12-18T14:14:47;42.13;;;21.87;;
67571;SDS011;54397;47.506;19.158;2022-12-18T14:21:48;35.80;;;20.67;;
67571;SDS011;54397;47.506;19.158;2022-12-18T14:28:42;36.43;;;20.37;;
67571;SDS011;54397;47.506;19.158;2022-12-18T14:32:06;35.23;;;20.37;;
67571;SDS011;54397;47.506;19.158;2022-12-18T14:35:57;36.20;;;20.52;;
67571;SDS011;54397;47.506;19.158;2022-12-18T14:39:21;38.17;;;20.33;;
67571;SDS011;54397;47.506;19.158;2022-12-18T14:42:47;36.13;;;19.53;;
67571;SDS011;54397;47.506;19.158;2022-12-18T14:49:52;38.27;;;20.83;;
67571;SDS011;54397;47.506;19.158;2022-12-18T14:53:20;41.30;;;20.60;;
67571;SDS011;54397;47.506;19.158;2022-12-18T15:00:42;38.85;;;20.52;;
67571;SDS011;54397;47.506;19.158;2022-12-18T15:04:04;40.57;;;21.23;;
67571;SDS011;54397;47.506;19.158;2022-12-18T15:07:50;44.00;;;21.43;;
67571;SDS011;54397;47.506;19.158;2022-12-18T15:11:32;42.53;;;21.67;;
67571;SDS011;54397;47.506;19.158;2022-12-18T15:14:54;42.60;;;22.63;;
67571;SDS011;54397;47.506;19.158;2022-12-18T15:18:19;76.23;;;37.43;;
67571;SDS011;54397;47.506;19.158;2022-12-18T15:21:45;54.20;;;27.53;;
67571;SDS011;54397;47.506;19.158;2022-12-18T15:25:25;45.37;;;22.13;;
67571;SDS011;54397;47.506;19.158;2022-12-18T15:32:18;43.50;;;22.90;;
67571;SDS011;54397;47.506;19.158;2022-12-18T15:35:43;43.70;;;23.23;;
67571;SDS011;54397;47.506;19.158;2022-12-18T15:39:09;50.60;;;23.67;;
67571;SDS011;54397;47.506;19.158;2022-12-18T15:42:34;45.10;;;22.77;;
67571;SDS011;54397;47.506;19.158;2022-12-18T15:49:37;42.40;;;23.03;;
67571;SDS011;54397;47.506;19.158;2022-12-18T15:52:59;43.90;;;22.13;;
67571;SDS011;54397;47.506;19.158;2022-12-18T15:56:20;42.03;;;22.50;;
67571;SDS011;54397;47.506;19.158;2022-12-18T16:00:01;44.33;;;21.63;;
67571;SDS011;54397;47.506;19.158;2022-12-18T16:03:22;43.10;;;21.77;;
67571;SDS011;54397;47.506;19.158;2022-12-18T16:06:44;41.37;;;22.90;;
67571;SDS011;54397;47.506;19.158;2022-12-18T16:10:26;48.87;;;23.67;;
67571;SDS011;54397;47.506;19.158;2022-12-18T16:13:50;48.23;;;22.20;;
67571;SDS011;54397;47.506;19.158;2022-12-18T16:17:13;43.60;;;21.73;;
67571;SDS011;54397;47.506;19.158;2022-12-18T16:20:37;51.40;;;24.30;;
67571;SDS011;54397;47.506;19.158;2022-12-18T16:23:59;49.47;;;23.87;;
67571;SDS011;54397;47.506;19.158;2022-12-18T16:27:26;70.37;;;35.57;;
67571;SDS011;54397;47.506;19.158;2022-12-18T16:30:48;82.07;;;36.70;;
67571;SDS011;54397;47.506;19.158;2022-12-18T16:34:14;56.27;;;28.90;;
67571;SDS011;54397;47.506;19.158;2022-12-18T16:37:39;51.70;;;27.50;;
67571;SDS011;54397;47.506;19.158;2022-12-18T16:41:01;58.83;;;27.00;;
67571;SDS011;54397;47.506;19.158;2022-12-18T16:44:50;51.83;;;25.70;;
67571;SDS011;54397;47.506;19.158;2022-12-18T16:48:13;40.70;;;21.57;;
67571;SDS011;54397;47.506;19.158;2022-12-18T16:51:37;46.73;;;24.00;;
67571;SDS011;54397;47.506;19.158;2022-12-18T16:54:59;50.97;;;25.57;;
67571;SDS011;54397;47.506;19.158;2022-12-18T16:58:21;52.70;;;26.67;;
67571;SDS011;54397;47.506;19.158;2022-12-18T17:01:43;48.57;;;24.87;;
67571;SDS011;54397;47.506;19.158;2022-12-18T17:05:07;46.33;;;22.87;;
67571;SDS011;54397;47.506;19.158;2022-12-18T17:08:29;38.60;;;22.33;;
67571;SDS011;54397;47.506;19.158;2022-12-18T17:11:54;38.13;;;21.13;;
67571;SDS011;54397;47.506;19.158;2022-12-18T17:15:16;45.37;;;22.70;;
67571;SDS011;54397;47.506;19.158;2022-12-18T17:18:43;49.90;;;25.13;;
67571;SDS011;54397;47.506;19.158;2022-12-18T17:22:05;60.77;;;29.70;;
67571;SDS011;54397;47.506;19.158;2022-12-18T17:25:30;52.17;;;26.57;;
67571;SDS011;54397;47.506;19.158;2022-12-18T17:28:54;56.07;;;30.00;;
67571;SDS011;54397;47.506;19.158;2022-12-18T17:32:20;71.77;;;34.00;;
67571;SDS011;54397;47.506;19.158;2022-12-18T17:35:41;83.37;;;42.27;;
67571;SDS011;54397;47.506;19.158;2022-12-18T17:39:04;99.03;;;47.50;;
67571;SDS011;54397;47.506;19.158;2022-12-18T17:42:27;93.53;;;40.83;;
67571;SDS011;54397;47.506;19.158;2022-12-18T17:45:48;66.03;;;34.80;;
67571;SDS011;54397;47.506;19.158;2022-12-18T17:49:14;58.27;;;30.50;;
67571;SDS011;54397;47.506;19.158;2022-12-18T17:52:39;53.33;;;28.60;;
67571;SDS011;54397;47.506;19.158;2022-12-18T17:56:01;45.37;;;23.73;;
67571;SDS011;54397;47.506;19.158;2022-12-18T17:59:25;45.57;;;23.63;;
67571;SDS011;54397;47.506;19.158;2022-12-18T18:02:47;50.03;;;23.83;;
67571;SDS011;54397;47.506;19.158;2022-12-18T18:06:09;47.33;;;24.47;;
67571;SDS011;54397;47.506;19.158;2022-12-18T18:09:32;49.27;;;24.50;;
67571;SDS011;54397;47.506;19.158;2022-12-18T18:12:56;49.63;;;23.93;;
67571;SDS011;54397;47.506;19.158;2022-12-18T18:16:39;41.67;;;21.73;;
67571;SDS011;54397;47.506;19.158;2022-12-18T18:20:05;41.90;;;21.17;;
67571;SDS011;54397;47.506;19.158;2022-12-18T18:23:27;47.50;;;23.33;;
67571;SDS011;54397;47.506;19.158;2022-12-18T18:26:54;50.77;;;24.33;;
67571;SDS011;54397;47.506;19.158;2022-12-18T18:30:16;51.17;;;25.63;;
67571;SDS011;54397;47.506;19.158;2022-12-18T18:33:39;48.43;;;25.20;;
67571;SDS011;54397;47.506;19.158;2022-12-18T18:37:02;64.00;;;29.40;;
67571;SDS011;54397;47.506;19.158;2022-12-18T18:40:24;61.33;;;33.50;;
67571;SDS011;54397;47.506;19.158;2022-12-18T18:43:48;103.20;;;49.43;;
67571;SDS011;54397;47.506;19.158;2022-12-18T18:47:14;100.50;;;47.43;;
67571;SDS011;54397;47.506;19.158;2022-12-18T18:50:38;94.47;;;47.07;;
67571;SDS011;54397;47.506;19.158;2022-12-18T18:54:02;101.27;;;48.77;;
67571;SDS011;54397;47.506;19.158;2022-12-18T18:57:24;114.63;;;55.73;;
67571;SDS011;54397;47.506;19.158;2022-12-18T19:01:07;118.80;;;53.50;;
67571;SDS011;54397;47.506;19.158;2022-12-18T19:04:34;121.87;;;51.70;;
67571;SDS011;54397;47.506;19.158;2022-12-18T19:08:09;128.67;;;59.23;;
67571;SDS011;54397;47.506;19.158;2022-12-18T19:11:31;121.13;;;57.37;;
67571;SDS011;54397;47.506;19.158;2022-12-18T19:15:11;113.57;;;53.33;;
67571;SDS011;54397;47.506;19.158;2022-12-18T19:18:34;109.23;;;52.33;;
67571;SDS011;54397;47.506;19.158;2022-12-18T19:21:58;103.57;;;48.90;;
67571;SDS011;54397;47.506;19.158;2022-12-18T19:25:22;89.57;;;47.23;;
67571;SDS011;54397;47.506;19.158;2022-12-18T19:29:05;101.33;;;46.17;;
67571;SDS011;54397;47.506;19.158;2022-12-18T19:32:28;96.33;;;43.13;;
67571;SDS011;54397;47.506;19.158;2022-12-18T19:35:51;89.97;;;41.43;;
67571;SDS011;54397;47.506;19.158;2022-12-18T19:39:14;95.93;;;41.63;;
67571;SDS011;54397;47.506;19.158;2022-12-18T19:42:39;83.57;;;39.90;;
67571;SDS011;54397;47.506;19.158;2022-12-18T19:46:02;83.77;;;39.97;;
67571;SDS011;54397;47.506;19.158;2022-12-18T19:49:27;86.73;;;41.10;;
67571;SDS011;54397;47.506;19.158;2022-12-18T19:52:49;101.50;;;41.30;;
67571;SDS011;54397;47.506;19.158;2022-12-18T19:56:12;89.77;;;40.93;;
67571;SDS011;54397;47.506;19.158;2022-12-18T19:59:35;86.27;;;39.77;;
67571;SDS011;54397;47.506;19.158;2022-12-18T20:03:03;85.38;;;39.72;;
67571;SDS011;54397;47.506;19.158;2022-12-18T20:06:45;80.97;;;37.47;;
67571;SDS011;54397;47.506;19.158;2022-12-18T20:10:12;76.23;;;36.63;;
67571;SDS011;54397;47.506;19.158;2022-12-18T20:13:38;79.40;;;37.97;;
67571;SDS011;54397;47.506;19.158;2022-12-18T20:17:00;86.37;;;38.47;;
67571;SDS011;54397;47.506;19.158;2022-12-18T20:20:22;77.90;;;35.40;;
67571;SDS011;54397;47.506;19.158;2022-12-18T20:23:48;71.10;;;34.17;;
67571;SDS011;54397;47.506;19.158;2022-12-18T20:27:10;74.63;;;33.70;;
67571;SDS011;54397;47.506;19.158;2022-12-18T20:30:38;66.67;;;31.70;;
67571;SDS011;54397;47.506;19.158;2022-12-18T20:34:02;69.90;;;33.37;;
67571;SDS011;54397;47.506;19.158;2022-12-18T20:37:27;67.80;;;34.90;;
67571;SDS011;54397;47.506;19.158;2022-12-18T20:40:49;65.03;;;34.67;;
67571;SDS011;54397;47.506;19.158;2022-12-18T20:44:15;64.10;;;32.20;;
67571;SDS011;54397;47.506;19.158;2022-12-18T20:47:43;72.70;;;34.28;;
67571;SDS011;54397;47.506;19.158;2022-12-18T20:51:06;72.20;;;33.80;;
67571;SDS011;54397;47.506;19.158;2022-12-18T20:54:32;69.97;;;33.13;;
67571;SDS011;54397;47.506;19.158;2022-12-18T20:57:53;69.00;;;34.77;;
67571;SDS011;54397;47.506;19.158;2022-12-18T21:01:18;75.83;;;35.47;;
67571;SDS011;54397;47.506;19.158;2022-12-18T21:04:43;62.60;;;33.40;;
67571;SDS011;54397;47.506;19.158;2022-12-18T21:08:05;72.60;;;35.87;;
67571;SDS011;54397;47.506;19.158;2022-12-18T21:15:09;69.90;;;33.87;;
67571;SDS011;54397;47.506;19.158;2022-12-18T21:18:33;63.40;;;33.33;;
67571;SDS011;54397;47.506;19.158;2022-12-18T21:21:57;65.53;;;32.10;;
67571;SDS011;54397;47.506;19.158;2022-12-18T21:25:19;68.63;;;35.30;;
67571;SDS011;54397;47.506;19.158;2022-12-18T21:28:40;65.70;;;32.80;;